DLH279 EDDH-EDDC
Flight info
| Callsign | DLH279 |
|---|---|
| Flight time | 0h 48m |
| Altitude | 23000 |
| Route | RAMAR6G RAMAR Z998 NUSGU/N0435F270 Z998 OSKAN OSKAN4B |
| Aircraft | A320/M-SDE3FGHIRWY/LB1 |
Departure
| Time | 2026-04-21 12:54 |
|---|---|
| Airport | Hamburg Helmut Schmidt Airport (EDDH) |
Arrival
| Time | 2026-04-21 13:43 |
|---|---|
| Airport | Dresden Airport (EDDC) |
| Time | Latitude | Longitude | Altitude | Speed | Heading |
|---|---|---|---|---|---|
| 2026-04-21 12:25 | 53.63106 | 10.00385 | 51 ft | 0 kts | 86° |
| 2026-04-21 12:43 | 53.63104 | 10.00353 | 51 ft | 4 kts | 87° |
| 2026-04-21 12:43 | 53.63105 | 10.00308 | 49 ft | 4 kts | 102° |
| 2026-04-21 12:43 | 53.63112 | 10.00273 | 47 ft | 4 kts | 126° |
| 2026-04-21 12:44 | 53.63127 | 10.00258 | 44 ft | 2 kts | 141° |
| 2026-04-21 12:44 | 53.63136 | 10.00243 | 46 ft | 4 kts | 211° |
| 2026-04-21 12:44 | 53.63159 | 10.00254 | 45 ft | 4 kts | 176° |
| 2026-04-21 12:44 | 53.63185 | 10.00251 | 48 ft | 4 kts | 176° |
| 2026-04-21 12:45 | 53.63212 | 10.00248 | 50 ft | 4 kts | 176° |
| 2026-04-21 12:45 | 53.63224 | 10.00247 | 51 ft | 1 kts | 176° |
| 2026-04-21 12:45 | 53.63224 | 10.00246 | 51 ft | 0 kts | 176° |
| 2026-04-21 12:48 | 53.63192 | 10.00250 | 49 ft | 9 kts | 176° |
| 2026-04-21 12:49 | 53.63133 | 10.00257 | 45 ft | 8 kts | 176° |
| 2026-04-21 12:49 | 53.63074 | 10.00257 | 51 ft | 10 kts | 193° |
| 2026-04-21 12:49 | 53.63017 | 10.00206 | 49 ft | 9 kts | 211° |
| 2026-04-21 12:49 | 53.62967 | 10.00156 | 47 ft | 8 kts | 211° |
| 2026-04-21 12:50 | 53.62924 | 10.00112 | 51 ft | 7 kts | 213° |
| 2026-04-21 12:50 | 53.62880 | 10.00070 | 50 ft | 8 kts | 198° |
| 2026-04-21 12:50 | 53.62831 | 10.00083 | 48 ft | 7 kts | 153° |
| 2026-04-21 12:50 | 53.62792 | 10.00118 | 50 ft | 6 kts | 152° |
| 2026-04-21 12:51 | 53.62758 | 10.00148 | 50 ft | 5 kts | 152° |
| 2026-04-21 12:51 | 53.62726 | 10.00176 | 50 ft | 5 kts | 153° |
| 2026-04-21 12:51 | 53.62679 | 10.00216 | 50 ft | 9 kts | 153° |
| 2026-04-21 12:51 | 53.62628 | 10.00260 | 50 ft | 8 kts | 153° |
| 2026-04-21 12:52 | 53.62585 | 10.00247 | 50 ft | 6 kts | 227° |
| 2026-04-21 12:52 | 53.62562 | 10.00182 | 49 ft | 7 kts | 240° |
| 2026-04-21 12:52 | 53.62541 | 10.00086 | 47 ft | 10 kts | 265° |
| 2026-04-21 12:52 | 53.62575 | 9.99993 | 47 ft | 11 kts | 326° |
| 2026-04-21 12:53 | 53.62647 | 9.99932 | 48 ft | 11 kts | 333° |
| 2026-04-21 12:53 | 53.62702 | 9.99885 | 48 ft | 0 kts | 332° |
| 2026-04-21 12:53 | 53.62727 | 9.99863 | 49 ft | 23 kts | 332° |
| 2026-04-21 12:54 | 53.63174 | 9.99477 | 50 ft | 117 kts | 333° |
| 2026-04-21 12:54 | 53.64106 | 9.98651 | 225 ft | 171 kts | 336° |
| 2026-04-21 12:54 | 53.65146 | 9.97628 | 1158 ft | 174 kts | 336° |
| 2026-04-21 12:54 | 53.66234 | 9.96699 | 2233 ft | 181 kts | 338° |
| 2026-04-21 12:55 | 53.67431 | 9.95713 | 2908 ft | 200 kts | 339° |
| 2026-04-21 12:55 | 53.68756 | 9.94776 | 3506 ft | 209 kts | 351° |
| 2026-04-21 12:55 | 53.70202 | 9.94640 | 4104 ft | 210 kts | 5° |
| 2026-04-21 12:55 | 53.71677 | 9.94715 | 4812 ft | 213 kts | 11° |
| 2026-04-21 12:56 | 53.73064 | 9.95497 | 5642 ft | 211 kts | 33° |
| 2026-04-21 12:56 | 53.74176 | 9.97149 | 6224 ft | 227 kts | 56° |
| 2026-04-21 12:56 | 53.74949 | 9.99611 | 6706 ft | 246 kts | 65° |
| 2026-04-21 12:56 | 53.75703 | 10.02269 | 7485 ft | 254 kts | 65° |
| 2026-04-21 12:57 | 53.76479 | 10.04980 | 8370 ft | 258 kts | 65° |
| 2026-04-21 12:57 | 53.77277 | 10.07760 | 9312 ft | 261 kts | 65° |
| 2026-04-21 12:57 | 53.78075 | 10.10535 | 10236 ft | 264 kts | 65° |
| 2026-04-21 12:57 | 53.78882 | 10.13347 | 10801 ft | 279 kts | 65° |
| 2026-04-21 12:58 | 53.79766 | 10.16429 | 11088 ft | 303 kts | 65° |
| 2026-04-21 12:58 | 53.80720 | 10.19752 | 11391 ft | 323 kts | 64° |
| 2026-04-21 12:58 | 53.81713 | 10.23214 | 12024 ft | 330 kts | 65° |
| 2026-04-21 12:58 | 53.82720 | 10.26724 | 12794 ft | 334 kts | 65° |
| 2026-04-21 12:59 | 53.83725 | 10.30283 | 13569 ft | 337 kts | 67° |
| 2026-04-21 12:59 | 53.84362 | 10.34105 | 14315 ft | 340 kts | 82° |
| 2026-04-21 12:59 | 53.84365 | 10.38133 | 14992 ft | 345 kts | 96° |
| 2026-04-21 12:59 | 53.83854 | 10.42132 | 15665 ft | 349 kts | 101° |
| 2026-04-21 13:00 | 53.83298 | 10.46150 | 16335 ft | 352 kts | 101° |
| 2026-04-21 13:00 | 53.82742 | 10.50200 | 17015 ft | 354 kts | 101° |
| 2026-04-21 13:00 | 53.82184 | 10.54280 | 17668 ft | 357 kts | 101° |
| 2026-04-21 13:00 | 53.81621 | 10.58394 | 18301 ft | 360 kts | 101° |
| 2026-04-21 13:01 | 53.81053 | 10.62541 | 18890 ft | 364 kts | 101° |
| 2026-04-21 13:01 | 53.80469 | 10.66716 | 19423 ft | 366 kts | 103° |
| 2026-04-21 13:01 | 53.79570 | 10.70776 | 19971 ft | 372 kts | 113° |
| 2026-04-21 13:01 | 53.78261 | 10.74573 | 20520 ft | 376 kts | 119° |
| 2026-04-21 13:02 | 53.76864 | 10.78329 | 21052 ft | 378 kts | 119° |
| 2026-04-21 13:02 | 53.75460 | 10.82101 | 21624 ft | 380 kts | 118° |
| 2026-04-21 13:02 | 53.72622 | 10.89701 | 22640 ft | 386 kts | 121° |
| 2026-04-21 13:03 | 53.70897 | 10.93218 | 23146 ft | 393 kts | 131° |
| 2026-04-21 13:03 | 53.68797 | 10.96222 | 23343 ft | 400 kts | 141° |
| 2026-04-21 13:03 | 53.66384 | 10.98746 | 23391 ft | 414 kts | 144° |
| 2026-04-21 13:03 | 53.63898 | 11.01265 | 23379 ft | 418 kts | 144° |
| 2026-04-21 13:04 | 53.61433 | 11.03762 | 23360 ft | 420 kts | 144° |
| 2026-04-21 13:04 | 53.58930 | 11.06298 | 23361 ft | 420 kts | 144° |
| 2026-04-21 13:04 | 53.56429 | 11.08836 | 23352 ft | 420 kts | 144° |
| 2026-04-21 13:04 | 53.53931 | 11.11376 | 23357 ft | 420 kts | 144° |
| 2026-04-21 13:05 | 53.51432 | 11.13916 | 23339 ft | 420 kts | 144° |
| 2026-04-21 13:05 | 53.48934 | 11.16454 | 23339 ft | 420 kts | 144° |
| 2026-04-21 13:05 | 53.46432 | 11.18989 | 23365 ft | 420 kts | 144° |
| 2026-04-21 13:05 | 53.43927 | 11.21520 | 23346 ft | 420 kts | 144° |
| 2026-04-21 13:06 | 53.41415 | 11.24049 | 23334 ft | 420 kts | 144° |
| 2026-04-21 13:06 | 53.38903 | 11.26575 | 23331 ft | 420 kts | 144° |
| 2026-04-21 13:06 | 53.36428 | 11.29064 | 23326 ft | 420 kts | 144° |
| 2026-04-21 13:06 | 53.33924 | 11.31583 | 23323 ft | 420 kts | 144° |
| 2026-04-21 13:07 | 53.31418 | 11.34101 | 23322 ft | 420 kts | 144° |
| 2026-04-21 13:07 | 53.28911 | 11.36613 | 23338 ft | 420 kts | 144° |
| 2026-04-21 13:07 | 53.26484 | 11.39281 | 23330 ft | 416 kts | 137° |
| 2026-04-21 13:07 | 53.24314 | 11.42436 | 23327 ft | 413 kts | 133° |
| 2026-04-21 13:08 | 53.22198 | 11.45693 | 23320 ft | 413 kts | 133° |
| 2026-04-21 13:08 | 53.20088 | 11.48946 | 23318 ft | 412 kts | 133° |
| 2026-04-21 13:08 | 53.17977 | 11.52196 | 23326 ft | 413 kts | 133° |
| 2026-04-21 13:08 | 53.15868 | 11.55437 | 23323 ft | 413 kts | 133° |
| 2026-04-21 13:09 | 53.13755 | 11.58674 | 23317 ft | 413 kts | 133° |
| 2026-04-21 13:09 | 53.11639 | 11.61911 | 23314 ft | 412 kts | 133° |
| 2026-04-21 13:09 | 53.09554 | 11.65100 | 23312 ft | 412 kts | 133° |
| 2026-04-21 13:09 | 53.07435 | 11.68330 | 23308 ft | 412 kts | 133° |
| 2026-04-21 13:10 | 53.05318 | 11.71550 | 23309 ft | 412 kts | 133° |
| 2026-04-21 13:10 | 53.03201 | 11.74763 | 23308 ft | 412 kts | 133° |
| 2026-04-21 13:10 | 53.01081 | 11.77973 | 23326 ft | 412 kts | 133° |
| 2026-04-21 13:10 | 52.99023 | 11.81272 | 23320 ft | 409 kts | 127° |
| 2026-04-21 13:11 | 52.97259 | 11.84947 | 23312 ft | 406 kts | 123° |
| 2026-04-21 13:11 | 52.95558 | 11.88691 | 23311 ft | 406 kts | 123° |
| 2026-04-21 13:11 | 52.93851 | 11.92428 | 23299 ft | 406 kts | 123° |
| 2026-04-21 13:11 | 52.92141 | 11.96162 | 23298 ft | 406 kts | 123° |
| 2026-04-21 13:12 | 52.90429 | 11.99891 | 23297 ft | 406 kts | 123° |
| 2026-04-21 13:12 | 52.88718 | 12.03615 | 23301 ft | 406 kts | 123° |
| 2026-04-21 13:12 | 52.87008 | 12.07337 | 23296 ft | 406 kts | 123° |
| 2026-04-21 13:12 | 52.85299 | 12.11056 | 23299 ft | 406 kts | 123° |
| 2026-04-21 13:13 | 52.83586 | 12.14779 | 23295 ft | 406 kts | 123° |
| 2026-04-21 13:13 | 52.81898 | 12.18444 | 23298 ft | 406 kts | 123° |
| 2026-04-21 13:13 | 52.80184 | 12.22162 | 23305 ft | 406 kts | 123° |
| 2026-04-21 13:13 | 52.78468 | 12.25874 | 23298 ft | 406 kts | 123° |
| 2026-04-21 13:14 | 52.76749 | 12.29582 | 23295 ft | 406 kts | 123° |
| 2026-04-21 13:14 | 52.75028 | 12.33282 | 23295 ft | 406 kts | 123° |
| 2026-04-21 13:14 | 52.73305 | 12.36980 | 23295 ft | 406 kts | 123° |
| 2026-04-21 13:14 | 52.71531 | 12.40615 | 23296 ft | 409 kts | 128° |
| 2026-04-21 13:15 | 52.69436 | 12.43822 | 23286 ft | 414 kts | 137° |
| 2026-04-21 13:15 | 52.67020 | 12.46462 | 23290 ft | 419 kts | 144° |
| 2026-04-21 13:15 | 52.64514 | 12.48923 | 23288 ft | 419 kts | 144° |
| 2026-04-21 13:15 | 52.62007 | 12.51385 | 23283 ft | 419 kts | 144° |
| 2026-04-21 13:16 | 52.59506 | 12.53843 | 23287 ft | 419 kts | 144° |
| 2026-04-21 13:16 | 52.57003 | 12.56305 | 23299 ft | 419 kts | 144° |
| 2026-04-21 13:16 | 52.54527 | 12.58744 | 23312 ft | 419 kts | 143° |
| 2026-04-21 13:16 | 52.52024 | 12.61212 | 23300 ft | 419 kts | 143° |
| 2026-04-21 13:17 | 52.49525 | 12.63672 | 23295 ft | 419 kts | 144° |
| 2026-04-21 13:17 | 52.47020 | 12.66130 | 23286 ft | 419 kts | 144° |
| 2026-04-21 13:17 | 52.44521 | 12.68581 | 23283 ft | 419 kts | 144° |
| 2026-04-21 13:17 | 52.42018 | 12.71030 | 23282 ft | 419 kts | 144° |
| 2026-04-21 13:18 | 52.39517 | 12.73468 | 23277 ft | 419 kts | 144° |
| 2026-04-21 13:18 | 52.37014 | 12.75900 | 23277 ft | 419 kts | 144° |
| 2026-04-21 13:18 | 52.34509 | 12.78331 | 23277 ft | 419 kts | 144° |
| 2026-04-21 13:18 | 52.32003 | 12.80765 | 23277 ft | 419 kts | 144° |
| 2026-04-21 13:19 | 52.29499 | 12.83194 | 23295 ft | 419 kts | 144° |
| 2026-04-21 13:19 | 52.27028 | 12.85589 | 23291 ft | 419 kts | 144° |
| 2026-04-21 13:19 | 52.24519 | 12.88018 | 23285 ft | 419 kts | 144° |
| 2026-04-21 13:19 | 52.22016 | 12.90444 | 23282 ft | 418 kts | 144° |
| 2026-04-21 13:20 | 52.20326 | 12.92087 | 23296 ft | 418 kts | 144° |
| 2026-04-21 13:20 | 52.17008 | 12.95316 | 23283 ft | 419 kts | 144° |
| 2026-04-21 13:20 | 52.14501 | 12.97757 | 23276 ft | 419 kts | 144° |
| 2026-04-21 13:20 | 52.11992 | 13.00194 | 23274 ft | 419 kts | 144° |
| 2026-04-21 13:21 | 52.09518 | 13.02586 | 23267 ft | 419 kts | 144° |
| 2026-04-21 13:21 | 52.07010 | 13.05001 | 23263 ft | 419 kts | 144° |
| 2026-04-21 13:21 | 52.04499 | 13.07415 | 23269 ft | 419 kts | 144° |
| 2026-04-21 13:21 | 52.01985 | 13.09832 | 23275 ft | 419 kts | 144° |
| 2026-04-21 13:22 | 52.00324 | 13.11429 | 23272 ft | 420 kts | 144° |
| 2026-04-21 13:22 | 51.96962 | 13.14659 | 23264 ft | 420 kts | 144° |
| 2026-04-21 13:22 | 51.95296 | 13.16258 | 23262 ft | 420 kts | 144° |
| 2026-04-21 13:22 | 51.92776 | 13.18675 | 23206 ft | 417 kts | 144° |
| 2026-04-21 13:23 | 51.90297 | 13.21046 | 22536 ft | 411 kts | 144° |
| 2026-04-21 13:23 | 51.87842 | 13.23390 | 21845 ft | 409 kts | 145° |
| 2026-04-21 13:23 | 51.85399 | 13.25721 | 21165 ft | 406 kts | 145° |
| 2026-04-21 13:23 | 51.82971 | 13.28036 | 20640 ft | 404 kts | 145° |
| 2026-04-21 13:24 | 51.80552 | 13.30340 | 20116 ft | 402 kts | 145° |
| 2026-04-21 13:24 | 51.78145 | 13.32625 | 19614 ft | 400 kts | 146° |
| 2026-04-21 13:24 | 51.75753 | 13.34895 | 19136 ft | 398 kts | 146° |
| 2026-04-21 13:24 | 51.73363 | 13.37158 | 18651 ft | 397 kts | 146° |
| 2026-04-21 13:25 | 51.70982 | 13.39405 | 18099 ft | 395 kts | 146° |
| 2026-04-21 13:25 | 51.68619 | 13.41628 | 17542 ft | 392 kts | 146° |
| 2026-04-21 13:25 | 51.66272 | 13.43835 | 17013 ft | 389 kts | 146° |
| 2026-04-21 13:25 | 51.63948 | 13.46022 | 16472 ft | 386 kts | 146° |
| 2026-04-21 13:26 | 51.61637 | 13.48199 | 15948 ft | 383 kts | 146° |
| 2026-04-21 13:26 | 51.59350 | 13.50352 | 15426 ft | 379 kts | 146° |
| 2026-04-21 13:26 | 51.57081 | 13.52488 | 14925 ft | 377 kts | 146° |
| 2026-04-21 13:26 | 51.54856 | 13.54573 | 14434 ft | 374 kts | 146° |
| 2026-04-21 13:27 | 51.52584 | 13.56692 | 13923 ft | 371 kts | 146° |
| 2026-04-21 13:27 | 51.50391 | 13.58739 | 13384 ft | 368 kts | 146° |
| 2026-04-21 13:27 | 51.48150 | 13.60704 | 12849 ft | 368 kts | 153° |
| 2026-04-21 13:27 | 51.45725 | 13.62016 | 12319 ft | 369 kts | 164° |
| 2026-04-21 13:28 | 51.43180 | 13.62538 | 11784 ft | 369 kts | 176° |
| 2026-04-21 13:28 | 51.40625 | 13.62416 | 11285 ft | 365 kts | 180° |
| 2026-04-21 13:28 | 51.38108 | 13.62242 | 10778 ft | 359 kts | 180° |
| 2026-04-21 13:28 | 51.35630 | 13.62073 | 10347 ft | 352 kts | 180° |
| 2026-04-21 13:29 | 51.33230 | 13.61916 | 10231 ft | 337 kts | 180° |
| 2026-04-21 13:29 | 51.30946 | 13.61770 | 10243 ft | 318 kts | 180° |
| 2026-04-21 13:29 | 51.28792 | 13.61628 | 10245 ft | 302 kts | 180° |
| 2026-04-21 13:29 | 51.26727 | 13.61492 | 10247 ft | 294 kts | 179° |
| 2026-04-21 13:30 | 51.24684 | 13.61363 | 10247 ft | 293 kts | 180° |
| 2026-04-21 13:30 | 51.22649 | 13.61236 | 10246 ft | 293 kts | 179° |
| 2026-04-21 13:30 | 51.20614 | 13.61105 | 10247 ft | 292 kts | 180° |
| 2026-04-21 13:30 | 51.18581 | 13.60974 | 10246 ft | 293 kts | 179° |
| 2026-04-21 13:31 | 51.16579 | 13.60847 | 10118 ft | 291 kts | 179° |
| 2026-04-21 13:31 | 51.14561 | 13.60722 | 9706 ft | 290 kts | 179° |
| 2026-04-21 13:31 | 51.12545 | 13.60599 | 9330 ft | 288 kts | 180° |
| 2026-04-21 13:31 | 51.10546 | 13.60472 | 8946 ft | 286 kts | 180° |
| 2026-04-21 13:32 | 51.08575 | 13.60344 | 8725 ft | 279 kts | 180° |
| 2026-04-21 13:32 | 51.06670 | 13.60216 | 8589 ft | 268 kts | 180° |
| 2026-04-21 13:32 | 51.04842 | 13.60097 | 8456 ft | 258 kts | 180° |
| 2026-04-21 13:32 | 51.03099 | 13.59979 | 8317 ft | 248 kts | 181° |
| 2026-04-21 13:33 | 51.01424 | 13.59429 | 8118 ft | 244 kts | 201° |
| 2026-04-21 13:33 | 50.99962 | 13.58057 | 7781 ft | 245 kts | 216° |
| 2026-04-21 13:33 | 50.98591 | 13.56449 | 7435 ft | 246 kts | 215° |
| 2026-04-21 13:33 | 50.97201 | 13.54837 | 7086 ft | 247 kts | 215° |
| 2026-04-21 13:34 | 50.95816 | 13.53239 | 6807 ft | 245 kts | 215° |
| 2026-04-21 13:34 | 50.94468 | 13.51685 | 6514 ft | 244 kts | 215° |
| 2026-04-21 13:34 | 50.93099 | 13.50106 | 6213 ft | 242 kts | 215° |
| 2026-04-21 13:34 | 50.91734 | 13.48575 | 5925 ft | 239 kts | 209° |
| 2026-04-21 13:35 | 50.90169 | 13.48009 | 5579 ft | 230 kts | 166° |
| 2026-04-21 13:35 | 50.88818 | 13.49122 | 5187 ft | 217 kts | 126° |
| 2026-04-21 13:35 | 50.88228 | 13.51222 | 4822 ft | 208 kts | 90° |
| 2026-04-21 13:35 | 50.88516 | 13.53385 | 4477 ft | 201 kts | 57° |
| 2026-04-21 13:36 | 50.89522 | 13.54860 | 4213 ft | 198 kts | 24° |
| 2026-04-21 13:36 | 50.90862 | 13.55286 | 4051 ft | 200 kts | 7° |
| 2026-04-21 13:36 | 50.92249 | 13.55556 | 3998 ft | 203 kts | 10° |
| 2026-04-21 13:36 | 50.93637 | 13.55891 | 4000 ft | 196 kts | 12° |
| 2026-04-21 13:37 | 50.94938 | 13.56211 | 3992 ft | 182 kts | 11° |
| 2026-04-21 13:37 | 50.96140 | 13.56504 | 4002 ft | 168 kts | 12° |
| 2026-04-21 13:37 | 50.97255 | 13.56771 | 4018 ft | 158 kts | 11° |
| 2026-04-21 13:37 | 50.98303 | 13.57020 | 4041 ft | 154 kts | 11° |
| 2026-04-21 13:38 | 50.99306 | 13.57503 | 4011 ft | 143 kts | 30° |
| 2026-04-21 13:38 | 51.00067 | 13.58477 | 4011 ft | 140 kts | 43° |
| 2026-04-21 13:38 | 51.00779 | 13.59480 | 4004 ft | 136 kts | 40° |
| 2026-04-21 13:38 | 51.01506 | 13.60467 | 4004 ft | 137 kts | 41° |
| 2026-04-21 13:39 | 51.02236 | 13.61458 | 4004 ft | 136 kts | 41° |
| 2026-04-21 13:39 | 51.02956 | 13.62437 | 4005 ft | 135 kts | 40° |
| 2026-04-21 13:39 | 51.03672 | 13.63412 | 4006 ft | 135 kts | 40° |
| 2026-04-21 13:39 | 51.04379 | 13.64377 | 4009 ft | 135 kts | 41° |
| 2026-04-21 13:40 | 51.05091 | 13.65350 | 4009 ft | 135 kts | 41° |
| 2026-04-21 13:40 | 51.05791 | 13.66308 | 3849 ft | 131 kts | 41° |
| 2026-04-21 13:40 | 51.06480 | 13.67252 | 3514 ft | 131 kts | 41° |
| 2026-04-21 13:40 | 51.07173 | 13.68200 | 3153 ft | 131 kts | 41° |
| 2026-04-21 13:41 | 51.07864 | 13.69148 | 2818 ft | 131 kts | 40° |
| 2026-04-21 13:41 | 51.08552 | 13.70091 | 2465 ft | 130 kts | 41° |
| 2026-04-21 13:41 | 51.09239 | 13.71033 | 2117 ft | 130 kts | 40° |
| 2026-04-21 13:41 | 51.09899 | 13.71931 | 1950 ft | 122 kts | 39° |
| 2026-04-21 13:42 | 51.10614 | 13.72752 | 1528 ft | 128 kts | 39° |
| 2026-04-21 13:42 | 51.11244 | 13.73718 | 1237 ft | 125 kts | 44° |
| 2026-04-21 13:42 | 51.11891 | 13.74635 | 940 ft | 125 kts | 40° |
| 2026-04-21 13:42 | 51.12539 | 13.75555 | 779 ft | 122 kts | 37° |
| 2026-04-21 13:43 | 51.13007 | 13.76185 | 755 ft | 59 kts | 42° |
| 2026-04-21 13:43 | 51.13282 | 13.76574 | 745 ft | 48 kts | 40° |
| 2026-04-21 13:43 | 51.13359 | 13.76758 | 742 ft | 11 kts | 129° |
| 2026-04-21 13:43 | 51.13312 | 13.76848 | 744 ft | 9 kts | 128° |
| 2026-04-21 13:44 | 51.13284 | 13.76901 | 745 ft | 0 kts | 131° |
| 2026-04-21 13:44 | 51.13282 | 13.76905 | 744 ft | 4 kts | 131° |
| 2026-04-21 13:45 | 51.13247 | 13.76968 | 743 ft | 7 kts | 131° |
| 2026-04-21 13:45 | 51.13215 | 13.77027 | 745 ft | 7 kts | 131° |
| 2026-04-21 13:45 | 51.13195 | 13.77062 | 745 ft | 1 kts | 131° |
| 2026-04-21 13:45 | 51.13171 | 13.77079 | 749 ft | 7 kts | 178° |
| 2026-04-21 13:46 | 51.13134 | 13.77056 | 749 ft | 6 kts | 208° |
| 2026-04-21 13:46 | 51.13085 | 13.76998 | 749 ft | 9 kts | 220° |
| 2026-04-21 13:46 | 51.13047 | 13.76918 | 751 ft | 11 kts | 256° |
| 2026-04-21 13:46 | 51.13038 | 13.76787 | 751 ft | 12 kts | 266° |
| 2026-04-21 13:47 | 51.13004 | 13.76684 | 750 ft | 11 kts | 224° |
| 2026-04-21 13:47 | 51.12951 | 13.76614 | 751 ft | 10 kts | 217° |
| 2026-04-21 13:47 | 51.12901 | 13.76548 | 752 ft | 9 kts | 221° |
| 2026-04-21 13:47 | 51.12860 | 13.76488 | 750 ft | 7 kts | 223° |
| 2026-04-21 13:48 | 51.12794 | 13.76463 | 750 ft | 11 kts | 155° |
| 2026-04-21 13:48 | 51.12762 | 13.76562 | 750 ft | 10 kts | 124° |
| 2026-04-21 13:48 | 51.12720 | 13.76645 | 750 ft | 9 kts | 130° |
| 2026-04-21 13:48 | 51.12681 | 13.76715 | 749 ft | 8 kts | 131° |
| 2026-04-21 13:49 | 51.12660 | 13.76754 | 751 ft | 1 kts | 131° |
| 2026-04-21 13:49 | 51.12658 | 13.76786 | 751 ft | 4 kts | 74° |
| 2026-04-21 13:49 | 51.12676 | 13.76823 | 751 ft | 6 kts | 40° |
| 2026-04-21 13:49 | 51.12693 | 13.76846 | 751 ft | 0 kts | 41° |
| 2026-04-21 13:51 | 51.12694 | 13.76847 | 751 ft | 0 kts | 42° |